sensor_id;sensor_type;location;lat;lon;timestamp;P1;durP1;ratioP1;P2;durP2;ratioP2
36321;SDS011;23564;48.290;11.460;2022-07-29T00:01:06;2.25;;;1.45;;
36321;SDS011;23564;48.290;11.460;2022-07-29T00:03:32;15.18;;;1.67;;
36321;SDS011;23564;48.290;11.460;2022-07-29T00:05:58;2.45;;;1.02;;
36321;SDS011;23564;48.290;11.460;2022-07-29T00:08:23;2.47;;;1.52;;
36321;SDS011;23564;48.290;11.460;2022-07-29T00:10:49;4.38;;;1.60;;
36321;SDS011;23564;48.290;11.460;2022-07-29T00:13:15;2.72;;;1.52;;
36321;SDS011;23564;48.290;11.460;2022-07-29T00:15:40;4.10;;;1.55;;
36321;SDS011;23564;48.290;11.460;2022-07-29T00:18:06;2.13;;;1.45;;
36321;SDS011;23564;48.290;11.460;2022-07-29T00:20:31;2.80;;;1.58;;
36321;SDS011;23564;48.290;11.460;2022-07-29T00:22:57;1.55;;;1.30;;
36321;SDS011;23564;48.290;11.460;2022-07-29T00:25:23;2.70;;;1.70;;
36321;SDS011;23564;48.290;11.460;2022-07-29T00:27:48;1.90;;;1.48;;
36321;SDS011;23564;48.290;11.460;2022-07-29T00:30:14;2.53;;;1.63;;
36321;SDS011;23564;48.290;11.460;2022-07-29T00:32:40;7.72;;;1.50;;
36321;SDS011;23564;48.290;11.460;2022-07-29T00:35:06;2.08;;;1.35;;
36321;SDS011;23564;48.290;11.460;2022-07-29T00:37:51;6.90;;;1.60;;
36321;SDS011;23564;48.290;11.460;2022-07-29T00:40:17;1.73;;;1.17;;
36321;SDS011;23564;48.290;11.460;2022-07-29T00:42:43;3.00;;;1.60;;
36321;SDS011;23564;48.290;11.460;2022-07-29T00:45:13;2.70;;;1.50;;
36321;SDS011;23564;48.290;11.460;2022-07-29T00:47:40;3.75;;;2.15;;
36321;SDS011;23564;48.290;11.460;2022-07-29T00:50:06;2.00;;;1.40;;
36321;SDS011;23564;48.290;11.460;2022-07-29T00:52:34;4.72;;;1.48;;
36321;SDS011;23564;48.290;11.460;2022-07-29T00:55:05;1.65;;;1.20;;
36321;SDS011;23564;48.290;11.460;2022-07-29T00:57:33;4.03;;;1.55;;
36321;SDS011;23564;48.290;11.460;2022-07-29T00:59:59;3.22;;;1.55;;
36321;SDS011;23564;48.290;11.460;2022-07-29T01:02:25;2.33;;;1.35;;
36321;SDS011;23564;48.290;11.460;2022-07-29T01:04:51;3.03;;;1.33;;
36321;SDS011;23564;48.290;11.460;2022-07-29T01:07:17;2.53;;;1.52;;
36321;SDS011;23564;48.290;11.460;2022-07-29T01:09:43;2.30;;;1.30;;
36321;SDS011;23564;48.290;11.460;2022-07-29T01:12:10;2.38;;;1.58;;
36321;SDS011;23564;48.290;11.460;2022-07-29T01:14:38;2.22;;;1.52;;
36321;SDS011;23564;48.290;11.460;2022-07-29T01:17:20;2.45;;;1.45;;
36321;SDS011;23564;48.290;11.460;2022-07-29T01:19:53;2.42;;;1.40;;
36321;SDS011;23564;48.290;11.460;2022-07-29T01:22:28;2.20;;;1.55;;
36321;SDS011;23564;48.290;11.460;2022-07-29T01:25:10;3.22;;;1.80;;
36321;SDS011;23564;48.290;11.460;2022-07-29T01:30:55;3.38;;;1.80;;
36321;SDS011;23564;48.290;11.460;2022-07-29T01:33:21;3.65;;;1.85;;
36321;SDS011;23564;48.290;11.460;2022-07-29T01:36:14;5.07;;;1.50;;
36321;SDS011;23564;48.290;11.460;2022-07-29T01:38:44;3.47;;;1.98;;
36321;SDS011;23564;48.290;11.460;2022-07-29T01:41:15;2.60;;;2.20;;
36321;SDS011;23564;48.290;11.460;2022-07-29T01:43:53;3.90;;;1.92;;
36321;SDS011;23564;48.290;11.460;2022-07-29T01:46:27;2.40;;;1.73;;
36321;SDS011;23564;48.290;11.460;2022-07-29T01:49:00;4.80;;;1.83;;
36321;SDS011;23564;48.290;11.460;2022-07-29T01:51:47;3.53;;;2.00;;
36321;SDS011;23564;48.290;11.460;2022-07-29T01:57:08;4.90;;;1.98;;
36321;SDS011;23564;48.290;11.460;2022-07-29T01:59:37;4.90;;;2.03;;
36321;SDS011;23564;48.290;11.460;2022-07-29T02:02:05;3.47;;;2.15;;
36321;SDS011;23564;48.290;11.460;2022-07-29T02:04:33;3.63;;;2.33;;
36321;SDS011;23564;48.290;11.460;2022-07-29T02:07:02;5.40;;;2.38;;
36321;SDS011;23564;48.290;11.460;2022-07-29T02:09:31;4.38;;;1.80;;
36321;SDS011;23564;48.290;11.460;2022-07-29T02:11:59;1.85;;;1.65;;
36321;SDS011;23564;48.290;11.460;2022-07-29T02:14:28;3.22;;;2.30;;
36321;SDS011;23564;48.290;11.460;2022-07-29T02:16:57;3.42;;;1.88;;
36321;SDS011;23564;48.290;11.460;2022-07-29T02:19:25;3.35;;;1.92;;
36321;SDS011;23564;48.290;11.460;2022-07-29T02:21:53;3.20;;;2.22;;
36321;SDS011;23564;48.290;11.460;2022-07-29T02:24:21;3.13;;;1.98;;
36321;SDS011;23564;48.290;11.460;2022-07-29T02:26:48;2.00;;;1.45;;
36321;SDS011;23564;48.290;11.460;2022-07-29T02:29:16;2.72;;;2.35;;
36321;SDS011;23564;48.290;11.460;2022-07-29T02:31:43;3.85;;;2.58;;
36321;SDS011;23564;48.290;11.460;2022-07-29T02:34:12;2.90;;;1.83;;
36321;SDS011;23564;48.290;11.460;2022-07-29T02:36:39;2.63;;;1.88;;
36321;SDS011;23564;48.290;11.460;2022-07-29T02:39:06;6.07;;;2.28;;
36321;SDS011;23564;48.290;11.460;2022-07-29T02:41:44;3.28;;;1.80;;
36321;SDS011;23564;48.290;11.460;2022-07-29T02:44:24;2.90;;;2.00;;
36321;SDS011;23564;48.290;11.460;2022-07-29T02:46:52;2.38;;;1.80;;
36321;SDS011;23564;48.290;11.460;2022-07-29T02:49:32;3.55;;;2.05;;
36321;SDS011;23564;48.290;11.460;2022-07-29T02:52:07;2.78;;;1.80;;
36321;SDS011;23564;48.290;11.460;2022-07-29T02:57:31;3.28;;;1.92;;
36321;SDS011;23564;48.290;11.460;2022-07-29T03:00:01;2.38;;;1.90;;
36321;SDS011;23564;48.290;11.460;2022-07-29T03:02:33;2.90;;;2.00;;
36321;SDS011;23564;48.290;11.460;2022-07-29T03:05:02;4.43;;;1.95;;
36321;SDS011;23564;48.290;11.460;2022-07-29T03:07:29;2.80;;;1.88;;
36321;SDS011;23564;48.290;11.460;2022-07-29T03:09:55;3.88;;;1.77;;
36321;SDS011;23564;48.290;11.460;2022-07-29T03:12:21;4.65;;;1.80;;
36321;SDS011;23564;48.290;11.460;2022-07-29T03:14:48;3.97;;;1.98;;
36321;SDS011;23564;48.290;11.460;2022-07-29T03:17:14;2.33;;;1.83;;
36321;SDS011;23564;48.290;11.460;2022-07-29T03:19:40;2.65;;;1.80;;
36321;SDS011;23564;48.290;11.460;2022-07-29T03:22:06;2.72;;;1.90;;
36321;SDS011;23564;48.290;11.460;2022-07-29T03:24:33;3.47;;;1.75;;
36321;SDS011;23564;48.290;11.460;2022-07-29T03:27:00;4.15;;;2.17;;
36321;SDS011;23564;48.290;11.460;2022-07-29T03:29:26;2.75;;;2.03;;
36321;SDS011;23564;48.290;11.460;2022-07-29T03:31:52;6.13;;;2.00;;
36321;SDS011;23564;48.290;11.460;2022-07-29T03:34:18;3.30;;;2.00;;
36321;SDS011;23564;48.290;11.460;2022-07-29T03:36:44;3.75;;;1.98;;
36321;SDS011;23564;48.290;11.460;2022-07-29T03:39:10;3.13;;;2.20;;
36321;SDS011;23564;48.290;11.460;2022-07-29T03:41:41;6.57;;;2.10;;
36321;SDS011;23564;48.290;11.460;2022-07-29T03:44:09;3.72;;;2.38;;
36321;SDS011;23564;48.290;11.460;2022-07-29T03:46:35;3.13;;;2.10;;
36321;SDS011;23564;48.290;11.460;2022-07-29T03:49:03;5.20;;;2.45;;
36321;SDS011;23564;48.290;11.460;2022-07-29T03:51:30;4.43;;;2.58;;
36321;SDS011;23564;48.290;11.460;2022-07-29T03:53:56;4.90;;;2.38;;
36321;SDS011;23564;48.290;11.460;2022-07-29T03:56:22;4.20;;;2.72;;
36321;SDS011;23564;48.290;11.460;2022-07-29T03:58:49;6.43;;;2.90;;
36321;SDS011;23564;48.290;11.460;2022-07-29T04:01:17;4.15;;;2.53;;
36321;SDS011;23564;48.290;11.460;2022-07-29T04:03:44;10.45;;;3.15;;
36321;SDS011;23564;48.290;11.460;2022-07-29T04:06:10;5.57;;;2.90;;
36321;SDS011;23564;48.290;11.460;2022-07-29T04:08:36;7.18;;;2.88;;
36321;SDS011;23564;48.290;11.460;2022-07-29T04:11:03;3.83;;;2.05;;
36321;SDS011;23564;48.290;11.460;2022-07-29T04:13:29;4.75;;;2.78;;
36321;SDS011;23564;48.290;11.460;2022-07-29T04:15:55;4.80;;;2.25;;
36321;SDS011;23564;48.290;11.460;2022-07-29T04:18:21;4.25;;;2.38;;
36321;SDS011;23564;48.290;11.460;2022-07-29T04:20:47;7.70;;;3.30;;
36321;SDS011;23564;48.290;11.460;2022-07-29T04:23:12;5.03;;;2.58;;
36321;SDS011;23564;48.290;11.460;2022-07-29T04:25:39;4.10;;;2.70;;
36321;SDS011;23564;48.290;11.460;2022-07-29T04:28:05;5.15;;;2.42;;
36321;SDS011;23564;48.290;11.460;2022-07-29T04:30:32;5.40;;;2.55;;
36321;SDS011;23564;48.290;11.460;2022-07-29T04:32:58;3.97;;;2.70;;
36321;SDS011;23564;48.290;11.460;2022-07-29T04:35:25;4.20;;;2.85;;
36321;SDS011;23564;48.290;11.460;2022-07-29T04:37:52;3.13;;;2.47;;
36321;SDS011;23564;48.290;11.460;2022-07-29T04:40:17;4.45;;;2.13;;
36321;SDS011;23564;48.290;11.460;2022-07-29T04:42:43;4.72;;;3.17;;
36321;SDS011;23564;48.290;11.460;2022-07-29T04:45:09;5.95;;;2.50;;
36321;SDS011;23564;48.290;11.460;2022-07-29T04:47:35;4.30;;;2.67;;
36321;SDS011;23564;48.290;11.460;2022-07-29T04:50:00;4.68;;;3.20;;
36321;SDS011;23564;48.290;11.460;2022-07-29T04:52:26;3.65;;;2.38;;
36321;SDS011;23564;48.290;11.460;2022-07-29T04:54:52;4.03;;;2.75;;
36321;SDS011;23564;48.290;11.460;2022-07-29T04:57:17;3.90;;;2.40;;
36321;SDS011;23564;48.290;11.460;2022-07-29T04:59:43;3.25;;;2.40;;
36321;SDS011;23564;48.290;11.460;2022-07-29T05:02:08;4.88;;;2.40;;
36321;SDS011;23564;48.290;11.460;2022-07-29T05:04:34;3.17;;;2.25;;
36321;SDS011;23564;48.290;11.460;2022-07-29T05:06:59;5.15;;;2.80;;
36321;SDS011;23564;48.290;11.460;2022-07-29T05:09:25;3.95;;;2.67;;
36321;SDS011;23564;48.290;11.460;2022-07-29T05:11:51;5.13;;;2.90;;
36321;SDS011;23564;48.290;11.460;2022-07-29T05:14:16;5.18;;;2.60;;
36321;SDS011;23564;48.290;11.460;2022-07-29T05:16:42;4.13;;;1.85;;
36321;SDS011;23564;48.290;11.460;2022-07-29T05:19:08;4.38;;;2.10;;
36321;SDS011;23564;48.290;11.460;2022-07-29T05:21:34;4.60;;;2.08;;
36321;SDS011;23564;48.290;11.460;2022-07-29T05:23:59;4.05;;;2.20;;
36321;SDS011;23564;48.290;11.460;2022-07-29T05:26:25;4.68;;;2.53;;
36321;SDS011;23564;48.290;11.460;2022-07-29T05:28:50;3.58;;;2.15;;
36321;SDS011;23564;48.290;11.460;2022-07-29T05:31:16;4.43;;;2.10;;
36321;SDS011;23564;48.290;11.460;2022-07-29T05:33:42;4.85;;;2.53;;
36321;SDS011;23564;48.290;11.460;2022-07-29T05:36:07;4.63;;;2.70;;
36321;SDS011;23564;48.290;11.460;2022-07-29T05:38:33;4.10;;;2.00;;
36321;SDS011;23564;48.290;11.460;2022-07-29T05:41:00;4.10;;;2.30;;
36321;SDS011;23564;48.290;11.460;2022-07-29T05:43:26;2.95;;;2.13;;
36321;SDS011;23564;48.290;11.460;2022-07-29T05:45:52;6.55;;;2.20;;
36321;SDS011;23564;48.290;11.460;2022-07-29T05:48:18;2.95;;;2.17;;
36321;SDS011;23564;48.290;11.460;2022-07-29T05:50:43;2.83;;;2.00;;
36321;SDS011;23564;48.290;11.460;2022-07-29T05:53:09;3.42;;;2.00;;
36321;SDS011;23564;48.290;11.460;2022-07-29T05:55:34;4.82;;;2.00;;
36321;SDS011;23564;48.290;11.460;2022-07-29T05:58:00;5.00;;;1.75;;
36321;SDS011;23564;48.290;11.460;2022-07-29T06:00:26;4.32;;;2.03;;
36321;SDS011;23564;48.290;11.460;2022-07-29T06:02:51;4.03;;;2.00;;
36321;SDS011;23564;48.290;11.460;2022-07-29T06:05:17;1.75;;;1.60;;
36321;SDS011;23564;48.290;11.460;2022-07-29T06:07:42;4.25;;;1.90;;
36321;SDS011;23564;48.290;11.460;2022-07-29T06:10:09;3.00;;;1.83;;
36321;SDS011;23564;48.290;11.460;2022-07-29T06:12:35;2.88;;;1.80;;
36321;SDS011;23564;48.290;11.460;2022-07-29T06:15:01;3.38;;;1.30;;
36321;SDS011;23564;48.290;11.460;2022-07-29T06:17:27;3.40;;;1.50;;
36321;SDS011;23564;48.290;11.460;2022-07-29T06:19:52;1.77;;;1.42;;
36321;SDS011;23564;48.290;11.460;2022-07-29T06:22:18;4.63;;;1.48;;
36321;SDS011;23564;48.290;11.460;2022-07-29T06:24:43;2.85;;;1.20;;
36321;SDS011;23564;48.290;11.460;2022-07-29T06:27:10;1.30;;;1.20;;
36321;SDS011;23564;48.290;11.460;2022-07-29T06:29:36;1.05;;;1.02;;
36321;SDS011;23564;48.290;11.460;2022-07-29T06:32:02;2.13;;;1.00;;
36321;SDS011;23564;48.290;11.460;2022-07-29T06:34:28;2.22;;;1.30;;
36321;SDS011;23564;48.290;11.460;2022-07-29T06:36:54;2.15;;;0.90;;
36321;SDS011;23564;48.290;11.460;2022-07-29T06:39:19;3.80;;;1.30;;
36321;SDS011;23564;48.290;11.460;2022-07-29T06:41:46;1.20;;;0.90;;
36321;SDS011;23564;48.290;11.460;2022-07-29T06:44:14;1.85;;;1.00;;
36321;SDS011;23564;48.290;11.460;2022-07-29T06:46:40;3.33;;;1.48;;
36321;SDS011;23564;48.290;11.460;2022-07-29T06:49:06;2.47;;;1.35;;
36321;SDS011;23564;48.290;11.460;2022-07-29T06:51:32;1.38;;;1.10;;
36321;SDS011;23564;48.290;11.460;2022-07-29T06:53:58;3.22;;;1.17;;
36321;SDS011;23564;48.290;11.460;2022-07-29T06:56:24;2.63;;;1.20;;
36321;SDS011;23564;48.290;11.460;2022-07-29T06:58:50;1.55;;;1.15;;
36321;SDS011;23564;48.290;11.460;2022-07-29T07:01:15;3.20;;;1.60;;
36321;SDS011;23564;48.290;11.460;2022-07-29T07:03:41;3.92;;;1.60;;
36321;SDS011;23564;48.290;11.460;2022-07-29T07:06:07;2.13;;;1.25;;
36321;SDS011;23564;48.290;11.460;2022-07-29T07:08:33;3.10;;;1.60;;
36321;SDS011;23564;48.290;11.460;2022-07-29T07:10:58;2.58;;;1.45;;
36321;SDS011;23564;48.290;11.460;2022-07-29T07:13:24;1.13;;;1.02;;
36321;SDS011;23564;48.290;11.460;2022-07-29T07:15:50;1.48;;;0.93;;
36321;SDS011;23564;48.290;11.460;2022-07-29T07:18:17;1.58;;;1.08;;
36321;SDS011;23564;48.290;11.460;2022-07-29T07:20:43;2.97;;;1.00;;
36321;SDS011;23564;48.290;11.460;2022-07-29T07:23:09;1.77;;;1.17;;
36321;SDS011;23564;48.290;11.460;2022-07-29T07:25:35;1.40;;;1.10;;
36321;SDS011;23564;48.290;11.460;2022-07-29T07:28:01;2.40;;;0.70;;
36321;SDS011;23564;48.290;11.460;2022-07-29T07:30:27;1.20;;;1.00;;
36321;SDS011;23564;48.290;11.460;2022-07-29T07:32:53;1.30;;;0.95;;
36321;SDS011;23564;48.290;11.460;2022-07-29T07:35:20;1.30;;;0.82;;
36321;SDS011;23564;48.290;11.460;2022-07-29T07:37:46;1.38;;;1.08;;
36321;SDS011;23564;48.290;11.460;2022-07-29T07:40:12;1.70;;;1.00;;
36321;SDS011;23564;48.290;11.460;2022-07-29T07:42:38;1.20;;;1.00;;
36321;SDS011;23564;48.290;11.460;2022-07-29T07:45:05;1.08;;;0.90;;
36321;SDS011;23564;48.290;11.460;2022-07-29T07:47:32;1.20;;;1.08;;
36321;SDS011;23564;48.290;11.460;2022-07-29T07:49:57;2.03;;;1.20;;
36321;SDS011;23564;48.290;11.460;2022-07-29T07:52:23;3.13;;;0.90;;
36321;SDS011;23564;48.290;11.460;2022-07-29T07:54:49;3.00;;;0.85;;
36321;SDS011;23564;48.290;11.460;2022-07-29T07:57:15;1.40;;;0.90;;
36321;SDS011;23564;48.290;11.460;2022-07-29T07:59:41;1.02;;;0.80;;
36321;SDS011;23564;48.290;11.460;2022-07-29T08:02:07;2.47;;;1.15;;
36321;SDS011;23564;48.290;11.460;2022-07-29T08:04:33;1.88;;;1.02;;
36321;SDS011;23564;48.290;11.460;2022-07-29T08:06:59;1.80;;;1.13;;
36321;SDS011;23564;48.290;11.460;2022-07-29T08:09:26;1.10;;;1.00;;
36321;SDS011;23564;48.290;11.460;2022-07-29T08:11:52;1.65;;;1.02;;
36321;SDS011;23564;48.290;11.460;2022-07-29T08:14:18;1.45;;;1.17;;
36321;SDS011;23564;48.290;11.460;2022-07-29T08:16:44;0.80;;;0.80;;
36321;SDS011;23564;48.290;11.460;2022-07-29T08:19:10;5.05;;;1.00;;
36321;SDS011;23564;48.290;11.460;2022-07-29T08:21:36;1.08;;;1.00;;
36321;SDS011;23564;48.290;11.460;2022-07-29T08:24:02;4.10;;;1.13;;
36321;SDS011;23564;48.290;11.460;2022-07-29T08:26:47;1.88;;;0.93;;
36321;SDS011;23564;48.290;11.460;2022-07-29T08:29:13;1.63;;;1.00;;
36321;SDS011;23564;48.290;11.460;2022-07-29T08:31:39;1.20;;;0.88;;
36321;SDS011;23564;48.290;11.460;2022-07-29T08:34:05;5.50;;;0.90;;
36321;SDS011;23564;48.290;11.460;2022-07-29T08:36:31;2.17;;;0.90;;
36321;SDS011;23564;48.290;11.460;2022-07-29T08:38:58;1.38;;;0.98;;
36321;SDS011;23564;48.290;11.460;2022-07-29T08:41:24;1.38;;;1.00;;
36321;SDS011;23564;48.290;11.460;2022-07-29T08:43:50;1.48;;;1.00;;
36321;SDS011;23564;48.290;11.460;2022-07-29T08:46:17;1.55;;;1.00;;
36321;SDS011;23564;48.290;11.460;2022-07-29T08:48:44;3.15;;;1.10;;
36321;SDS011;23564;48.290;11.460;2022-07-29T08:51:12;3.15;;;0.93;;
36321;SDS011;23564;48.290;11.460;2022-07-29T08:53:45;2.40;;;0.90;;
36321;SDS011;23564;48.290;11.460;2022-07-29T08:56:14;1.40;;;1.00;;
36321;SDS011;23564;48.290;11.460;2022-07-29T08:58:44;3.08;;;1.10;;
36321;SDS011;23564;48.290;11.460;2022-07-29T09:01:11;4.03;;;1.50;;
36321;SDS011;23564;48.290;11.460;2022-07-29T09:03:39;1.17;;;1.05;;
36321;SDS011;23564;48.290;11.460;2022-07-29T09:06:05;4.30;;;1.27;;
36321;SDS011;23564;48.290;11.460;2022-07-29T09:08:32;3.42;;;1.30;;
36321;SDS011;23564;48.290;11.460;2022-07-29T09:11:00;4.80;;;0.90;;
36321;SDS011;23564;48.290;11.460;2022-07-29T09:13:26;2.33;;;0.93;;
36321;SDS011;23564;48.290;11.460;2022-07-29T09:15:52;2.20;;;1.50;;
36321;SDS011;23564;48.290;11.460;2022-07-29T09:18:34;2.20;;;1.23;;
36321;SDS011;23564;48.290;11.460;2022-07-29T09:21:04;2.03;;;1.15;;
36321;SDS011;23564;48.290;11.460;2022-07-29T09:26:28;2.15;;;1.23;;
36321;SDS011;23564;48.290;11.460;2022-07-29T09:28:55;1.92;;;1.25;;
36321;SDS011;23564;48.290;11.460;2022-07-29T09:31:32;2.88;;;1.50;;
36321;SDS011;23564;48.290;11.460;2022-07-29T09:34:02;3.90;;;1.42;;
36321;SDS011;23564;48.290;11.460;2022-07-29T09:36:30;3.30;;;1.27;;
36321;SDS011;23564;48.290;11.460;2022-07-29T09:39:02;3.60;;;1.30;;
36321;SDS011;23564;48.290;11.460;2022-07-29T09:41:28;2.08;;;1.25;;
36321;SDS011;23564;48.290;11.460;2022-07-29T09:43:58;2.75;;;1.70;;
36321;SDS011;23564;48.290;11.460;2022-07-29T09:46:26;2.97;;;1.33;;
36321;SDS011;23564;48.290;11.460;2022-07-29T09:49:10;3.30;;;1.70;;
36321;SDS011;23564;48.290;11.460;2022-07-29T09:51:37;2.60;;;1.80;;
36321;SDS011;23564;48.290;11.460;2022-07-29T09:54:20;3.88;;;1.65;;
36321;SDS011;23564;48.290;11.460;2022-07-29T09:56:48;4.50;;;1.60;;
36321;SDS011;23564;48.290;11.460;2022-07-29T09:59:14;4.15;;;1.77;;
36321;SDS011;23564;48.290;11.460;2022-07-29T10:01:40;2.78;;;1.83;;
36321;SDS011;23564;48.290;11.460;2022-07-29T10:04:06;2.80;;;1.42;;
36321;SDS011;23564;48.290;11.460;2022-07-29T10:06:31;2.95;;;1.63;;
36321;SDS011;23564;48.290;11.460;2022-07-29T10:09:10;2.88;;;1.55;;
36321;SDS011;23564;48.290;11.460;2022-07-29T10:11:36;3.28;;;1.65;;
36321;SDS011;23564;48.290;11.460;2022-07-29T10:14:02;2.70;;;2.00;;
36321;SDS011;23564;48.290;11.460;2022-07-29T10:16:28;4.68;;;1.85;;
36321;SDS011;23564;48.290;11.460;2022-07-29T10:18:57;3.67;;;1.83;;
36321;SDS011;23564;48.290;11.460;2022-07-29T10:21:24;3.55;;;1.70;;
36321;SDS011;23564;48.290;11.460;2022-07-29T10:23:51;3.60;;;1.88;;
36321;SDS011;23564;48.290;11.460;2022-07-29T10:26:17;4.18;;;1.73;;
36321;SDS011;23564;48.290;11.460;2022-07-29T10:28:44;2.53;;;1.55;;
36321;SDS011;23564;48.290;11.460;2022-07-29T10:31:12;3.20;;;1.80;;
36321;SDS011;23564;48.290;11.460;2022-07-29T10:33:59;3.17;;;2.00;;
36321;SDS011;23564;48.290;11.460;2022-07-29T10:44:31;3.42;;;2.13;;
36321;SDS011;23564;48.290;11.460;2022-07-29T10:46:58;4.50;;;2.22;;
36321;SDS011;23564;48.290;11.460;2022-07-29T10:49:24;4.78;;;2.38;;
36321;SDS011;23564;48.290;11.460;2022-07-29T10:51:52;4.78;;;2.40;;
36321;SDS011;23564;48.290;11.460;2022-07-29T10:59:47;3.42;;;2.30;;
36321;SDS011;23564;48.290;11.460;2022-07-29T11:04:58;7.10;;;1.90;;
36321;SDS011;23564;48.290;11.460;2022-07-29T11:10:38;2.92;;;1.85;;
36321;SDS011;23564;48.290;11.460;2022-07-29T11:13:05;5.55;;;1.95;;
36321;SDS011;23564;48.290;11.460;2022-07-29T11:15:51;2.83;;;1.90;;
36321;SDS011;23564;48.290;11.460;2022-07-29T11:18:17;4.70;;;2.25;;
36321;SDS011;23564;48.290;11.460;2022-07-29T11:20:44;5.45;;;2.00;;
36321;SDS011;23564;48.290;11.460;2022-07-29T11:23:19;4.55;;;1.88;;
36321;SDS011;23564;48.290;11.460;2022-07-29T11:34:18;3.72;;;2.03;;
36321;SDS011;23564;48.290;11.460;2022-07-29T11:44:54;5.32;;;2.00;;
36321;SDS011;23564;48.290;11.460;2022-07-29T11:47:23;3.22;;;1.83;;
36321;SDS011;23564;48.290;11.460;2022-07-29T11:49:50;2.50;;;1.77;;
36321;SDS011;23564;48.290;11.460;2022-07-29T11:52:17;2.80;;;1.50;;
36321;SDS011;23564;48.290;11.460;2022-07-29T11:54:43;2.67;;;1.75;;
36321;SDS011;23564;48.290;11.460;2022-07-29T11:57:11;3.35;;;2.08;;
36321;SDS011;23564;48.290;11.460;2022-07-29T11:59:39;5.55;;;2.08;;
36321;SDS011;23564;48.290;11.460;2022-07-29T12:02:06;2.83;;;1.70;;
36321;SDS011;23564;48.290;11.460;2022-07-29T12:04:33;5.72;;;1.83;;
36321;SDS011;23564;48.290;11.460;2022-07-29T12:06:59;3.88;;;1.58;;
36321;SDS011;23564;48.290;11.460;2022-07-29T12:09:25;5.45;;;1.55;;
36321;SDS011;23564;48.290;11.460;2022-07-29T12:11:57;1.77;;;1.50;;
36321;SDS011;23564;48.290;11.460;2022-07-29T12:14:25;5.65;;;1.80;;
36321;SDS011;23564;48.290;11.460;2022-07-29T12:16:54;2.80;;;1.77;;
36321;SDS011;23564;48.290;11.460;2022-07-29T12:19:20;2.97;;;1.55;;
36321;SDS011;23564;48.290;11.460;2022-07-29T12:21:46;4.82;;;1.73;;
36321;SDS011;23564;48.290;11.460;2022-07-29T12:24:13;4.45;;;2.15;;
36321;SDS011;23564;48.290;11.460;2022-07-29T12:26:51;6.07;;;1.52;;
36321;SDS011;23564;48.290;11.460;2022-07-29T12:29:21;1.80;;;1.50;;
36321;SDS011;23564;48.290;11.460;2022-07-29T12:31:51;2.17;;;1.42;;
36321;SDS011;23564;48.290;11.460;2022-07-29T12:34:19;3.83;;;1.75;;
36321;SDS011;23564;48.290;11.460;2022-07-29T12:36:47;3.60;;;1.70;;
36321;SDS011;23564;48.290;11.460;2022-07-29T12:39:14;2.75;;;1.67;;
36321;SDS011;23564;48.290;11.460;2022-07-29T12:41:42;4.47;;;1.50;;
36321;SDS011;23564;48.290;11.460;2022-07-29T12:44:07;5.93;;;2.00;;
36321;SDS011;23564;48.290;11.460;2022-07-29T12:46:33;1.92;;;1.50;;
36321;SDS011;23564;48.290;11.460;2022-07-29T12:48:59;5.25;;;1.60;;
36321;SDS011;23564;48.290;11.460;2022-07-29T12:51:28;3.97;;;1.83;;
36321;SDS011;23564;48.290;11.460;2022-07-29T12:54:12;3.75;;;1.80;;
36321;SDS011;23564;48.290;11.460;2022-07-29T12:56:42;6.40;;;1.73;;
36321;SDS011;23564;48.290;11.460;2022-07-29T12:59:13;2.53;;;1.42;;
36321;SDS011;23564;48.290;11.460;2022-07-29T13:01:43;2.65;;;1.60;;
36321;SDS011;23564;48.290;11.460;2022-07-29T13:04:09;5.22;;;1.80;;
36321;SDS011;23564;48.290;11.460;2022-07-29T13:06:40;4.82;;;1.42;;
36321;SDS011;23564;48.290;11.460;2022-07-29T13:09:13;1.75;;;1.35;;
36321;SDS011;23564;48.290;11.460;2022-07-29T13:11:45;5.53;;;1.52;;
36321;SDS011;23564;48.290;11.460;2022-07-29T13:14:33;2.58;;;1.20;;
36321;SDS011;23564;48.290;11.460;2022-07-29T13:17:05;4.40;;;1.60;;
36321;SDS011;23564;48.290;11.460;2022-07-29T13:22:05;1.73;;;1.42;;
36321;SDS011;23564;48.290;11.460;2022-07-29T13:24:31;4.07;;;1.65;;
36321;SDS011;23564;48.290;11.460;2022-07-29T13:26:57;2.78;;;1.60;;
36321;SDS011;23564;48.290;11.460;2022-07-29T13:29:22;3.08;;;1.30;;
36321;SDS011;23564;48.290;11.460;2022-07-29T13:31:48;4.13;;;1.20;;
36321;SDS011;23564;48.290;11.460;2022-07-29T13:34:13;4.28;;;1.60;;
36321;SDS011;23564;48.290;11.460;2022-07-29T13:36:39;2.78;;;1.90;;
36321;SDS011;23564;48.290;11.460;2022-07-29T13:39:05;10.63;;;1.63;;
36321;SDS011;23564;48.290;11.460;2022-07-29T13:41:30;3.05;;;1.45;;
36321;SDS011;23564;48.290;11.460;2022-07-29T13:43:56;3.95;;;2.10;;
36321;SDS011;23564;48.290;11.460;2022-07-29T13:46:21;3.55;;;1.65;;
36321;SDS011;23564;48.290;11.460;2022-07-29T13:48:47;2.28;;;1.50;;
36321;SDS011;23564;48.290;11.460;2022-07-29T13:51:13;7.00;;;1.63;;
36321;SDS011;23564;48.290;11.460;2022-07-29T13:53:38;3.83;;;1.52;;
36321;SDS011;23564;48.290;11.460;2022-07-29T13:56:04;8.10;;;1.88;;
36321;SDS011;23564;48.290;11.460;2022-07-29T13:58:32;4.30;;;1.63;;
36321;SDS011;23564;48.290;11.460;2022-07-29T14:00:58;10.70;;;1.52;;
36321;SDS011;23564;48.290;11.460;2022-07-29T14:03:24;3.72;;;1.50;;
36321;SDS011;23564;48.290;11.460;2022-07-29T14:05:50;3.10;;;1.40;;
36321;SDS011;23564;48.290;11.460;2022-07-29T14:08:16;2.13;;;1.48;;
36321;SDS011;23564;48.290;11.460;2022-07-29T14:10:42;4.45;;;1.55;;
36321;SDS011;23564;48.290;11.460;2022-07-29T14:13:07;5.07;;;1.70;;
36321;SDS011;23564;48.290;11.460;2022-07-29T14:15:33;7.95;;;2.22;;
36321;SDS011;23564;48.290;11.460;2022-07-29T14:17:59;5.28;;;1.50;;
36321;SDS011;23564;48.290;11.460;2022-07-29T14:20:24;4.05;;;1.60;;
36321;SDS011;23564;48.290;11.460;2022-07-29T14:22:50;2.30;;;1.35;;
36321;SDS011;23564;48.290;11.460;2022-07-29T14:25:15;5.63;;;1.35;;
36321;SDS011;23564;48.290;11.460;2022-07-29T14:27:42;1.63;;;1.40;;
36321;SDS011;23564;48.290;11.460;2022-07-29T14:30:08;4.70;;;1.40;;
36321;SDS011;23564;48.290;11.460;2022-07-29T14:32:34;3.90;;;1.33;;
36321;SDS011;23564;48.290;11.460;2022-07-29T14:35:00;4.70;;;1.23;;
36321;SDS011;23564;48.290;11.460;2022-07-29T14:37:25;1.65;;;1.30;;
36321;SDS011;23564;48.290;11.460;2022-07-29T14:39:51;2.78;;;1.80;;
36321;SDS011;23564;48.290;11.460;2022-07-29T14:42:16;3.38;;;1.67;;
36321;SDS011;23564;48.290;11.460;2022-07-29T14:44:42;6.32;;;1.55;;
36321;SDS011;23564;48.290;11.460;2022-07-29T14:47:08;4.90;;;2.08;;
36321;SDS011;23564;48.290;11.460;2022-07-29T14:49:34;5.03;;;1.42;;
36321;SDS011;23564;48.290;11.460;2022-07-29T14:52:00;5.38;;;2.17;;
36321;SDS011;23564;48.290;11.460;2022-07-29T14:54:25;5.18;;;1.88;;
36321;SDS011;23564;48.290;11.460;2022-07-29T14:56:51;3.83;;;1.85;;
36321;SDS011;23564;48.290;11.460;2022-07-29T14:59:20;7.85;;;2.38;;
36321;SDS011;23564;48.290;11.460;2022-07-29T15:01:45;3.03;;;1.73;;
36321;SDS011;23564;48.290;11.460;2022-07-29T15:04:11;5.72;;;1.83;;
36321;SDS011;23564;48.290;11.460;2022-07-29T15:06:36;5.05;;;1.70;;
36321;SDS011;23564;48.290;11.460;2022-07-29T15:09:02;6.90;;;1.95;;
36321;SDS011;23564;48.290;11.460;2022-07-29T15:11:28;5.05;;;1.85;;
36321;SDS011;23564;48.290;11.460;2022-07-29T15:13:54;3.78;;;1.80;;
36321;SDS011;23564;48.290;11.460;2022-07-29T15:16:19;4.25;;;1.65;;
36321;SDS011;23564;48.290;11.460;2022-07-29T15:18:45;3.10;;;1.65;;
36321;SDS011;23564;48.290;11.460;2022-07-29T15:21:10;8.18;;;1.80;;
36321;SDS011;23564;48.290;11.460;2022-07-29T15:23:36;4.38;;;1.77;;
36321;SDS011;23564;48.290;11.460;2022-07-29T15:26:02;5.03;;;2.08;;